Terminal Aerodrome Forecast
Issued by NWS

Home | Current Version | Previous Version | Text Only | Print | Product List | Glossary On
Versions: 1 2 3 4 5 6 7 8 9 10 11 12 13 14 15
000
FTUS42 TJSJ 270500
TAFJPS
TAF
TJPS 270520Z 2706/2806 00000KT P6SM FEW030
     FM271400 13012KT P6SM FEW030 SCT060
     FM271700 14010G18KT P6SM VCSH SCT025 SCT060
     FM280400 05005KT P6SM VCSH SCT020 BKN050=

USA.gov is the U.S. government's official web portal to all federal, state and local government web resources and services.